Search for airport 
image banner adimage banner adimage banner ad
image banner ad

L70 - Agua Dulce

Located in Agua Dulce, United States

ICAO - L70, IATA -

Data provided by Airmate  

General information

Coordinates: N34°30'13" W118°18'47"
Elevation is 2633 feet MSL.
Magnetic variation is 14° East
View others Airports in California

Operational data

Special qualification required
Current time UTC:
Current local time:
Weather at : KPMD - Palmdale Usaf Plant 42 ( 25 km )
METAR: KPMD 211253Z AUTO 21011KT 10SM CLR 24/03 A2995 RMK AO2 SLP105 T02440028
TAF: KPMD 211124Z 2112/2212 18011KT P6SM SKC FM211600 25012KT P6SM SKC FM211800 24020G28KT P6SM SKC FM212100 24025G35KT P6SM SKC FM220200 24015G22KT P6SM SKC FM220400 23012KT P6SM SKC
View NOTAMs / SUP AIP / TFR affecting this airport [VIEW]
Communications frequencies: [VIEW]

Runways:

RWY identifierQFULength (ft)Width (ft)SurfaceLDA (ft)
04420550ASPH
22420550ASPH

Airport contact information

Address: Agua Dulce United States

Satellite view of L70